Buoy 43528

sailwx.info

Track history (hours):
 
Tides and Currents Weather Stations Pressure Air Temp Water Temp Dewpoint Dewpoint Depression Visibility Wind Speed Wind Dir Waves Ship Positions

Drifting buoy 43528

Last reported at 2015-Jan-26 02:00 UTC. Time now 2015-Jan-26 04:30 UTC.
Position N 12°56' W 149°36'.

Water temperature 26.4 ° C

Date/timePositionNaut miles runAvg speedWind from/ knotsBaromVisibWave heightAir tempDewpointWater temp
2015-Jan-26 02:00N 12°56' W 149°36'1 0.9 26.4
2015-Jan-26 01:00N 12°56' W 149°35'2 1.7 26.5
2015-Jan-26 00:00N 12°56' W 149°33'0 0.0 26.5
2015-Jan-25 23:00N 12°56' W 149°33'1 1.5 26.5
2015-Jan-25 22:00N 12°57' W 149°33'1 0.7 26.5
2015-Jan-25 20:00N 12°57' W 149°31'0 0.1 26.4
2015-Jan-25 19:00N 12°57' W 149°31'5 1.0 26.4
2015-Jan-25 14:00N 12°57' W 149°26'0 0.0 26.3
2015-Jan-25 13:00N 12°57' W 149°26'2 1.5 26.3
2015-Jan-25 12:00N 12°57' W 149°25'4 4.1 26.3
2015-Jan-25 11:00N 12°58' W 149°20'4 4.1 26.4
2015-Jan-25 10:00N 12°57' W 149°25'7 2.2 26.4
2015-Jan-25 07:00N 12°59' W 149°18'0 0.0 26.4
2015-Jan-25 06:00N 12°59' W 149°18'2 1.2 26.4
2015-Jan-25 04:00N 12°60' W 149°16'4 1.8 26.4
2015-Jan-25 02:00N 13°03' W 149°13'2 0.8 26.5
2015-Jan-25 00:00N 13°04' W 149°12'1 0.3 26.5
2015-Jan-24 22:00N 13°04' W 149°13'1 0.6 26.5
2015-Jan-24 20:00N 13°05' W 149°12'1 0.4 26.4
2015-Jan-24 16:00N 13°04' W 149°11'1 0.7 26.4
2015-Jan-24 15:00N 13°04' W 149°10'0 0.2 26.4
2015-Jan-24 13:00N 13°04' W 149°10'1 0.8 26.4
2015-Jan-24 12:00N 13°04' W 149°09'0 0.0 26.4
2015-Jan-24 11:00N 13°04' W 149°09'2 0.6 26.4
2015-Jan-24 08:00N 13°04' W 149°07'0 0.5 26.4
2015-Jan-24 07:00N 13°04' W 149°07'1 1.0 26.4
2015-Jan-24 06:00N 13°05' W 149°06'1 0.5 26.5
2015-Jan-24 03:00N 13°04' W 149°05'1 1.1 26.5
2015-Jan-24 02:00N 13°04' W 149°04'1 0.5 26.6
2015-Jan-24 00:00N 13°04' W 149°03'1 1.0 26.6
2015-Jan-23 23:00N 13°04' W 149°02'0 0.2 26.5
2015-Jan-23 20:00N 13°04' W 149°01'1 0.6 26.4
2015-Jan-23 19:00N 13°04' W 149°01'2 0.4 26.4
2015-Jan-23 15:00N 13°03' W 148°59'1 0.8 26.4
2015-Jan-23 14:00N 13°03' W 148°58'0 0.0 26.4
2015-Jan-23 11:00N 13°03' W 148°58'2 0.6 26.4
2015-Jan-23 08:00N 13°03' W 148°57'1 1.2 26.4
2015-Jan-23 07:00N 13°03' W 148°56'0 0.0 26.4
2015-Jan-23 06:00N 13°03' W 148°56'2 1.1 26.4
2015-Jan-23 04:00N 13°03' W 148°53'0 0.0 26.4
2015-Jan-23 03:00N 13°03' W 148°53'0 0.5 26.4
2015-Jan-23 02:00N 13°02' W 148°53'2 0.8 26.5
2015-Jan-23 00:00N 13°03' W 148°52'2 1.5 26.6
2015-Jan-22 23:00N 13°03' W 148°50'0 0.0 26.5
2015-Jan-22 20:00N 13°03' W 148°50'2 1.5 26.4
2015-Jan-22 19:00N 13°03' W 148°49'1 1.4 26.4
2015-Jan-22 18:00N 13°04' W 148°48'1 0.4 26.4
2015-Jan-22 15:00N 13°04' W 148°47'0 0.0 26.4
2015-Jan-22 14:00N 13°04' W 148°47'0 0.0 26.4
2015-Jan-22 13:00N 13°04' W 148°47'0 0.1 26.4
2015-Jan-22 12:00N 13°04' W 148°47'2 2.0 26.4
2015-Jan-22 11:00N 13°05' W 148°45'0 0.0 26.4
2015-Jan-22 08:00N 13°05' W 148°45'0 0.4 26.4
2015-Jan-22 07:00N 13°05' W 148°44'1 1.2 26.4
2015-Jan-22 06:00N 13°05' W 148°43'0 0.0 26.4
2015-Jan-22 04:00N 13°05' W 148°43'1 0.7 26.4
2015-Jan-22 03:00N 13°05' W 148°42'0 0.2 26.4
2015-Jan-22 02:00N 13°05' W 148°42'2 1.5 26.4
2015-Jan-22 01:00N 13°05' W 148°41'1 0.7 26.4
2015-Jan-21 23:00N 13°05' W 148°39'1 0.3 26.4
2015-Jan-21 20:00N 13°04' W 148°39'1 0.3 26.2
2015-Jan-21 18:00N 13°05' W 148°38'1 0.7 26.2
2015-Jan-21 16:00N 13°05' W 148°37'1 0.6 26.2
2015-Jan-21 15:00N 13°05' W 148°36'5 1.7 26.2
2015-Jan-21 12:00N 13°05' W 148°31'2 0.3 26.2
2015-Jan-21 07:00N 13°05' W 148°29'0 0.0 26.2
2015-Jan-21 06:00N 13°05' W 148°29'1 0.8 26.3
2015-Jan-21 05:00N 13°06' W 148°29'2 0.9 26.3
2015-Jan-21 03:00N 13°06' W 148°27'1 1.2 26.3
2015-Jan-21 02:00N 13°06' W 148°26'2 1.7 26.4
2015-Jan-21 01:00N 13°07' W 148°25'0 0.0 26.4
2015-Jan-21 00:00N 13°07' W 148°25'1 0.9 26.4
2015-Jan-20 23:00N 13°07' W 148°25'4 1.3 26.4
2015-Jan-20 20:00N 13°08' W 148°22'1 1.2 26.2
2015-Jan-20 19:00N 13°09' W 148°21'1 1.1 26.2
2015-Jan-20 18:00N 13°09' W 148°20'1 0.3 26.1
2015-Jan-20 16:00N 13°10' W 148°19'1 0.7 26.1
2015-Jan-20 15:00N 13°10' W 148°19'0 0.4 26.1
2015-Jan-20 14:00N 13°10' W 148°18'2 1.0 26.2
2015-Jan-20 12:00N 13°12' W 148°19'4 1.1 26.2
2015-Jan-20 08:00N 13°11' W 148°15'1 0.8 26.2
2015-Jan-20 07:00N 13°11' W 148°14'1 1.5 26.2
2015-Jan-20 06:00N 13°12' W 148°12'1 0.4 26.2
2015-Jan-20 03:00N 13°12' W 148°11'1 1.4 26.2
2015-Jan-20 02:00N 13°12' W 148°10'3 1.6 26.3
2015-Jan-20 00:00N 13°12' W 148°06'0 0.0 26.3
2015-Jan-19 23:00N 13°12' W 148°06'0 0.0 26.2
2015-Jan-19 20:00N 13°12' W 148°06'1 0.8 26.2
2015-Jan-19 19:00N 13°12' W 148°06'2 1.5 26.2
2015-Jan-19 18:00N 13°12' W 148°04'2 0.6 26.2
2015-Jan-19 15:00N 13°11' W 148°02'1 1.4 26.2
2015-Jan-19 14:00N 13°11' W 148°01'0 0.1 26.2
2015-Jan-19 12:00N 13°11' W 148°01'4 0.8 26.2
2015-Jan-19 07:00N 13°11' W 147°57'1 1.4 26.2
2015-Jan-19 06:00N 13°11' W 147°55'1 1.3 26.2
2015-Jan-19 05:00N 13°11' W 147°54'1 0.8 26.2
2015-Jan-19 04:00N 13°11' W 147°53'2 2.0 26.2
2015-Jan-19 03:00N 13°11' W 147°51'1 0.4 26.2
2015-Jan-19 00:00N 13°11' W 147°50'1 0.6 26.2
2015-Jan-18 23:00N 13°11' W 147°51'6 1.4 26.2
2015-Jan-18 19:00N 13°11' W 147°45'0 0.0 26.1
2015-Jan-18 18:00N 13°11' W 147°45'1 0.4 26.1
2015-Jan-18 16:00N 13°11' W 147°44'1 0.8 26.1
2015-Jan-18 15:00N 13°11' W 147°43'1 0.3 26.1
2015-Jan-18 12:00N 13°11' W 147°42'3 2.8 26.1
2015-Jan-18 11:00N 13°12' W 147°39'1 0.3 26.1
2015-Jan-18 08:00N 13°12' W 147°39'1 1.3 26.1
2015-Jan-18 07:00N 13°11' W 147°38'1 1.4 26.1
2015-Jan-18 06:00N 13°13' W 147°37'1 0.7 26.1
2015-Jan-18 04:00N 13°12' W 147°36'0 0.3 26.1
2015-Jan-18 03:00N 13°13' W 147°36'3 0.9 26.1
2015-Jan-18 00:00N 13°12' W 147°33'0 0.0 26.2
2015-Jan-17 22:00N 13°12' W 147°33'2 1.0 26.2
2015-Jan-17 20:00N 13°13' W 147°31'3 3.3 26.1
2015-Jan-17 19:00N 13°13' W 147°27'0 0.0 26.1
2015-Jan-17 18:00N 13°13' W 147°27'2 0.9 26.1
2015-Jan-17 16:00N 13°13' W 147°25'3 1.5 26.1
2015-Jan-17 14:00N 13°14' W 147°23'0 0.1 26.1
2015-Jan-17 11:00N 13°14' W 147°23'3 0.9 26.2
2015-Jan-17 07:00N 13°15' W 147°19'0 0.1 26.2
2015-Jan-17 06:00N 13°15' W 147°20'2 0.6 26.2
2015-Jan-17 03:00N 13°16' W 147°18'3 1.5 26.3
2015-Jan-17 01:00N 13°17' W 147°15'2 1.8 26.3
2015-Jan-17 00:00N 13°17' W 147°13'0 0.0 26.3
2015-Jan-16 23:00N 13°17' W 147°13'0 0.3 26.3
2015-Jan-16 22:00N 13°17' W 147°13'3 1.3 26.3
2015-Jan-16 20:00N 13°19' W 147°11'1 0.3 26.2
2015-Jan-16 18:00N 13°20' W 147°11'2 0.8 26.1
2015-Jan-16 15:00N 13°18' W 147°09'1 0.6 26.1
2015-Jan-16 13:00N 13°19' W 147°08'1 1.0 26.1
2015-Jan-16 12:00N 13°18' W 147°07'0 0.0 26.1
2015-Jan-16 11:00N 13°18' W 147°07'0 0.0 26.1
2015-Jan-16 10:00N 13°18' W 147°07'1 0.6 26.1
2015-Jan-16 08:00N 13°18' W 147°06'2 2.1 26.1
2015-Jan-16 07:00N 13°19' W 147°04'0 0.0 26.1
2015-Jan-16 06:00N 13°19' W 147°04'1 0.6 26.1
2015-Jan-16 04:00N 13°19' W 147°03'2 2.2 26.2
2015-Jan-16 03:00N 13°20' W 147°00'2 1.9 26.2
2015-Jan-16 02:00N 13°21' W 146°59'   26.3
Track history (hours):
 
Tides and Currents Weather Stations Pressure Air Temp Water Temp Dewpoint Dewpoint Depression Visibility Wind Speed Wind Dir Waves Ship Positions

Drifting buoy 43528

Last reported at 2015-Jan-26 02:00 UTC. Time now 2015-Jan-26 04:30 UTC.
Position N 12°56' W 149°36'.

Water temperature 26.4 ° C

Date/timePositionNaut miles runAvg speedWind from/ knotsBaromVisibWave heightAir tempDewpointWater temp
2015-Jan-26 02:00N 12°56' W 149°36'1 0.9 26.4
2015-Jan-26 01:00N 12°56' W 149°35'2 1.7 26.5
2015-Jan-26 00:00N 12°56' W 149°33'0 0.0 26.5
2015-Jan-25 23:00N 12°56' W 149°33'1 1.5 26.5
2015-Jan-25 22:00N 12°57' W 149°33'1 0.7 26.5
2015-Jan-25 20:00N 12°57' W 149°31'0 0.1 26.4
2015-Jan-25 19:00N 12°57' W 149°31'5 1.0 26.4
2015-Jan-25 14:00N 12°57' W 149°26'0 0.0 26.3
2015-Jan-25 13:00N 12°57' W 149°26'2 1.5 26.3
2015-Jan-25 12:00N 12°57' W 149°25'4 4.1 26.3
2015-Jan-25 11:00N 12°58' W 149°20'4 4.1 26.4
2015-Jan-25 10:00N 12°57' W 149°25'7 2.2 26.4
2015-Jan-25 07:00N 12°59' W 149°18'0 0.0 26.4
2015-Jan-25 06:00N 12°59' W 149°18'2 1.2 26.4
2015-Jan-25 04:00N 12°60' W 149°16'4 1.8 26.4
2015-Jan-25 02:00N 13°03' W 149°13'2 0.8 26.5
2015-Jan-25 00:00N 13°04' W 149°12'1 0.3 26.5
2015-Jan-24 22:00N 13°04' W 149°13'1 0.6 26.5
2015-Jan-24 20:00N 13°05' W 149°12'1 0.4 26.4
2015-Jan-24 16:00N 13°04' W 149°11'1 0.7 26.4
2015-Jan-24 15:00N 13°04' W 149°10'0 0.2 26.4
2015-Jan-24 13:00N 13°04' W 149°10'1 0.8 26.4
2015-Jan-24 12:00N 13°04' W 149°09'0 0.0 26.4
2015-Jan-24 11:00N 13°04' W 149°09'2 0.6 26.4
2015-Jan-24 08:00N 13°04' W 149°07'0 0.5 26.4
2015-Jan-24 07:00N 13°04' W 149°07'1 1.0 26.4
2015-Jan-24 06:00N 13°05' W 149°06'1 0.5 26.5
2015-Jan-24 03:00N 13°04' W 149°05'1 1.1 26.5
2015-Jan-24 02:00N 13°04' W 149°04'1 0.5 26.6
2015-Jan-24 00:00N 13°04' W 149°03'1 1.0 26.6
2015-Jan-23 23:00N 13°04' W 149°02'0 0.2 26.5
2015-Jan-23 20:00N 13°04' W 149°01'1 0.6 26.4
2015-Jan-23 19:00N 13°04' W 149°01'2 0.4 26.4
2015-Jan-23 15:00N 13°03' W 148°59'1 0.8 26.4
2015-Jan-23 14:00N 13°03' W 148°58'0 0.0 26.4
2015-Jan-23 11:00N 13°03' W 148°58'2 0.6 26.4
2015-Jan-23 08:00N 13°03' W 148°57'1 1.2 26.4
2015-Jan-23 07:00N 13°03' W 148°56'0 0.0 26.4
2015-Jan-23 06:00N 13°03' W 148°56'2 1.1 26.4
2015-Jan-23 04:00N 13°03' W 148°53'0 0.0 26.4
2015-Jan-23 03:00N 13°03' W 148°53'0 0.5 26.4
2015-Jan-23 02:00N 13°02' W 148°53'2 0.8 26.5
2015-Jan-23 00:00N 13°03' W 148°52'2 1.5 26.6
2015-Jan-22 23:00N 13°03' W 148°50'0 0.0 26.5
2015-Jan-22 20:00N 13°03' W 148°50'2 1.5 26.4
2015-Jan-22 19:00N 13°03' W 148°49'1 1.4 26.4
2015-Jan-22 18:00N 13°04' W 148°48'1 0.4 26.4
2015-Jan-22 15:00N 13°04' W 148°47'0 0.0 26.4
2015-Jan-22 14:00N 13°04' W 148°47'0 0.0 26.4
2015-Jan-22 13:00N 13°04' W 148°47'0 0.1 26.4
2015-Jan-22 12:00N 13°04' W 148°47'2 2.0 26.4
2015-Jan-22 11:00N 13°05' W 148°45'0 0.0 26.4
2015-Jan-22 08:00N 13°05' W 148°45'0 0.4 26.4
2015-Jan-22 07:00N 13°05' W 148°44'1 1.2 26.4
2015-Jan-22 06:00N 13°05' W 148°43'0 0.0 26.4
2015-Jan-22 04:00N 13°05' W 148°43'1 0.7 26.4
2015-Jan-22 03:00N 13°05' W 148°42'0 0.2 26.4
2015-Jan-22 02:00N 13°05' W 148°42'2 1.5 26.4
2015-Jan-22 01:00N 13°05' W 148°41'1 0.7 26.4
2015-Jan-21 23:00N 13°05' W 148°39'1 0.3 26.4
2015-Jan-21 20:00N 13°04' W 148°39'1 0.3 26.2
2015-Jan-21 18:00N 13°05' W 148°38'1 0.7 26.2
2015-Jan-21 16:00N 13°05' W 148°37'1 0.6 26.2
2015-Jan-21 15:00N 13°05' W 148°36'5 1.7 26.2
2015-Jan-21 12:00N 13°05' W 148°31'2 0.3 26.2
2015-Jan-21 07:00N 13°05' W 148°29'0 0.0 26.2
2015-Jan-21 06:00N 13°05' W 148°29'1 0.8 26.3
2015-Jan-21 05:00N 13°06' W 148°29'2 0.9 26.3
2015-Jan-21 03:00N 13°06' W 148°27'1 1.2 26.3
2015-Jan-21 02:00N 13°06' W 148°26'2 1.7 26.4
2015-Jan-21 01:00N 13°07' W 148°25'0 0.0 26.4
2015-Jan-21 00:00N 13°07' W 148°25'1 0.9 26.4
2015-Jan-20 23:00N 13°07' W 148°25'4 1.3 26.4
2015-Jan-20 20:00N 13°08' W 148°22'1 1.2 26.2
2015-Jan-20 19:00N 13°09' W 148°21'1 1.1 26.2
2015-Jan-20 18:00N 13°09' W 148°20'1 0.3 26.1
2015-Jan-20 16:00N 13°10' W 148°19'1 0.7 26.1
2015-Jan-20 15:00N 13°10' W 148°19'0 0.4 26.1
2015-Jan-20 14:00N 13°10' W 148°18'2 1.0 26.2
2015-Jan-20 12:00N 13°12' W 148°19'4 1.1 26.2
2015-Jan-20 08:00N 13°11' W 148°15'1 0.8 26.2
2015-Jan-20 07:00N 13°11' W 148°14'1 1.5 26.2
2015-Jan-20 06:00N 13°12' W 148°12'1 0.4 26.2
2015-Jan-20 03:00N 13°12' W 148°11'1 1.4 26.2
2015-Jan-20 02:00N 13°12' W 148°10'3 1.6 26.3
2015-Jan-20 00:00N 13°12' W 148°06'0 0.0 26.3
2015-Jan-19 23:00N 13°12' W 148°06'0 0.0 26.2
2015-Jan-19 20:00N 13°12' W 148°06'1 0.8 26.2
2015-Jan-19 19:00N 13°12' W 148°06'2 1.5 26.2
2015-Jan-19 18:00N 13°12' W 148°04'2 0.6 26.2
2015-Jan-19 15:00N 13°11' W 148°02'1 1.4 26.2
2015-Jan-19 14:00N 13°11' W 148°01'0 0.1 26.2
2015-Jan-19 12:00N 13°11' W 148°01'4 0.8 26.2
2015-Jan-19 07:00N 13°11' W 147°57'1 1.4 26.2
2015-Jan-19 06:00N 13°11' W 147°55'1 1.3 26.2
2015-Jan-19 05:00N 13°11' W 147°54'1 0.8 26.2
2015-Jan-19 04:00N 13°11' W 147°53'2 2.0 26.2
2015-Jan-19 03:00N 13°11' W 147°51'1 0.4 26.2
2015-Jan-19 00:00N 13°11' W 147°50'1 0.6 26.2
2015-Jan-18 23:00N 13°11' W 147°51'6 1.4 26.2
2015-Jan-18 19:00N 13°11' W 147°45'0 0.0 26.1
2015-Jan-18 18:00N 13°11' W 147°45'1 0.4 26.1
2015-Jan-18 16:00N 13°11' W 147°44'1 0.8 26.1
2015-Jan-18 15:00N 13°11' W 147°43'1 0.3 26.1
2015-Jan-18 12:00N 13°11' W 147°42'3 2.8 26.1
2015-Jan-18 11:00N 13°12' W 147°39'1 0.3 26.1
2015-Jan-18 08:00N 13°12' W 147°39'1 1.3 26.1
2015-Jan-18 07:00N 13°11' W 147°38'1 1.4 26.1
2015-Jan-18 06:00N 13°13' W 147°37'1 0.7 26.1
2015-Jan-18 04:00N 13°12' W 147°36'0 0.3 26.1
2015-Jan-18 03:00N 13°13' W 147°36'3 0.9 26.1
2015-Jan-18 00:00N 13°12' W 147°33'0 0.0 26.2
2015-Jan-17 22:00N 13°12' W 147°33'2 1.0 26.2
2015-Jan-17 20:00N 13°13' W 147°31'3 3.3 26.1
2015-Jan-17 19:00N 13°13' W 147°27'0 0.0 26.1
2015-Jan-17 18:00N 13°13' W 147°27'2 0.9 26.1
2015-Jan-17 16:00N 13°13' W 147°25'3 1.5 26.1
2015-Jan-17 14:00N 13°14' W 147°23'0 0.1 26.1
2015-Jan-17 11:00N 13°14' W 147°23'3 0.9 26.2
2015-Jan-17 07:00N 13°15' W 147°19'0 0.1 26.2
2015-Jan-17 06:00N 13°15' W 147°20'2 0.6 26.2
2015-Jan-17 03:00N 13°16' W 147°18'3 1.5 26.3
2015-Jan-17 01:00N 13°17' W 147°15'2 1.8 26.3
2015-Jan-17 00:00N 13°17' W 147°13'0 0.0 26.3
2015-Jan-16 23:00N 13°17' W 147°13'0 0.3 26.3
2015-Jan-16 22:00N 13°17' W 147°13'3 1.3 26.3
2015-Jan-16 20:00N 13°19' W 147°11'1 0.3 26.2
2015-Jan-16 18:00N 13°20' W 147°11'2 0.8 26.1
2015-Jan-16 15:00N 13°18' W 147°09'1 0.6 26.1
2015-Jan-16 13:00N 13°19' W 147°08'1 1.0 26.1
2015-Jan-16 12:00N 13°18' W 147°07'0 0.0 26.1
2015-Jan-16 11:00N 13°18' W 147°07'0 0.0 26.1
2015-Jan-16 10:00N 13°18' W 147°07'1 0.6 26.1
2015-Jan-16 08:00N 13°18' W 147°06'2 2.1 26.1
2015-Jan-16 07:00N 13°19' W 147°04'0 0.0 26.1
2015-Jan-16 06:00N 13°19' W 147°04'1 0.6 26.1
2015-Jan-16 04:00N 13°19' W 147°03'2 2.2 26.2
2015-Jan-16 03:00N 13°20' W 147°00'2 1.9 26.2
2015-Jan-16 02:00N 13°21' W 146°59'   26.3

Dump ship's entire track history